Time;durP1;ratioP1;P1;durP2;ratioP2;P2;SDS_P1;SDS_P2;PMS_P1;PMS_P2;Temp;Humidity;BMP_temperature;BMP_pressure;BME280_temperature;BME280_humidity;BME280_pressure;Samples;Min_cycle;Max_cycle;Signal;HPM_P1;HPM_P2
2022/01/25 00:31:36;;;;;;;94.43;52.10;;;;;;;;;;5009181;28;20468;-61
2022/01/25 00:33:53;;;;;;;95.50;53.00;;;;;;;;;;5001140;28;20484;-60
2022/01/25 00:36:20;;;;;;;92.57;51.67;;;;;;;;;;5001670;28;20057;-61
2022/01/25 00:38:47;;;;;;;100.07;56.03;;;;;;;;;;5007990;28;20041;-61
2022/01/25 00:41:14;;;;;;;97.83;54.07;;;;;;;;;;5008905;28;20403;-61
2022/01/25 00:43:40;;;;;;;93.83;53.30;;;;;;;;;;5008757;28;20049;-61
2022/01/25 00:46:09;;;;;;;102.80;56.20;;;;;;;;;;5010758;28;20034;-61
2022/01/25 00:53:59;;;;;;;100.07;53.43;;;;;;;;;;4990514;28;20038;-61
2022/01/25 00:56:29;;;;;;;99.97;52.17;;;;;;;;;;5006273;28;20045;-61
2022/01/25 00:58:55;;;;;;;97.73;53.27;;;;;;;;;;5006874;28;21658;-61
2022/01/25 01:01:21;;;;;;;97.80;54.73;;;;;;;;;;5004544;28;20542;-61
2022/01/25 01:03:47;;;;;;;101.50;55.93;;;;;;;;;;4989769;28;20130;-61
2022/01/25 01:06:14;;;;;;;95.27;54.27;;;;;;;;;;4992414;28;20125;-61
2022/01/25 01:08:41;;;;;;;96.03;53.27;;;;;;;;;;4992853;28;20042;-61
2022/01/25 01:11:11;;;;;;;94.80;51.90;;;;;;;;;;4990978;28;20501;-62
2022/01/25 01:38:09;;;;;;;98.63;54.10;;;;;;;;;;4990118;28;20095;-62
2022/01/25 01:43:31;;;;;;;98.17;54.20;;;;;;;;;;4988431;28;20344;-61
2022/01/25 01:48:42;;;;;;;103.73;53.97;;;;;;;;;;5007861;28;20030;-62
2022/01/25 01:51:17;;;;;;;100.50;55.13;;;;;;;;;;5008666;28;20499;-61
2022/01/25 01:53:44;;;;;;;96.97;53.75;;;;;;;;;;5006854;28;20060;-61
2022/01/25 01:56:10;;;;;;;95.00;54.83;;;;;;;;;;5005993;28;20092;-61
2022/01/25 01:58:36;;;;;;;93.97;53.40;;;;;;;;;;5009185;28;20072;-62
2022/01/25 02:01:04;;;;;;;93.90;53.73;;;;;;;;;;4999954;28;20030;-61
2022/01/25 02:03:30;;;;;;;99.57;55.77;;;;;;;;;;5002271;28;20535;-62
2022/01/25 02:05:56;;;;;;;100.37;55.90;;;;;;;;;;4988113;28;20030;-61
2022/01/25 02:08:22;;;;;;;100.50;54.23;;;;;;;;;;5001138;28;20037;-61
2022/01/25 02:10:48;;;;;;;97.57;55.23;;;;;;;;;;5038700;28;20037;-61
2022/01/25 02:13:14;;;;;;;91.27;53.67;;;;;;;;;;5010048;28;20053;-62
2022/01/25 02:15:44;;;;;;;100.00;55.20;;;;;;;;;;5008145;28;20046;-61
2022/01/25 02:23:42;;;;;;;104.37;56.93;;;;;;;;;;4996127;28;20479;-61
2022/01/25 02:26:09;;;;;;;116.53;59.33;;;;;;;;;;4988204;28;20041;-62
2022/01/25 02:28:37;;;;;;;105.23;56.43;;;;;;;;;;4991243;28;20034;-61
2022/01/25 02:31:04;;;;;;;109.10;55.90;;;;;;;;;;4991542;28;20097;-61
2022/01/25 02:33:30;;;;;;;109.63;57.73;;;;;;;;;;4987857;28;20067;-61
2022/01/25 02:35:57;;;;;;;106.90;57.57;;;;;;;;;;4994758;28;20037;-61
2022/01/25 02:38:28;;;;;;;107.27;56.73;;;;;;;;;;5008737;28;20056;-61
2022/01/25 02:40:54;;;;;;;110.10;57.60;;;;;;;;;;5029500;28;20442;-61
2022/01/25 02:43:21;;;;;;;118.27;60.10;;;;;;;;;;5019219;28;20060;-62
2022/01/25 02:46:04;;;;;;;114.83;59.73;;;;;;;;;;5006276;28;20058;-62
2022/01/25 02:48:30;;;;;;;107.50;57.17;;;;;;;;;;5008812;28;20038;-62
2022/01/25 02:51:01;;;;;;;108.57;60.10;;;;;;;;;;5009690;28;20042;-62
2022/01/25 02:53:28;;;;;;;111.80;60.00;;;;;;;;;;5006987;28;20049;-62
2022/01/25 02:55:54;;;;;;;118.80;61.13;;;;;;;;;;5006432;28;20026;-62
2022/01/25 02:58:20;;;;;;;113.97;60.53;;;;;;;;;;4995876;28;20070;-62
2022/01/25 03:00:46;;;;;;;120.20;62.00;;;;;;;;;;5005900;28;20487;-62
2022/01/25 03:03:12;;;;;;;114.30;60.00;;;;;;;;;;5007480;28;20487;-62
2022/01/25 03:05:38;;;;;;;115.07;59.67;;;;;;;;;;5006536;28;20034;-62
2022/01/25 03:08:04;;;;;;;123.40;60.23;;;;;;;;;;5006624;28;20065;-62
2022/01/25 03:10:36;;;;;;;109.47;56.50;;;;;;;;;;5030986;28;20096;-63
2022/01/25 03:13:02;;;;;;;115.90;58.70;;;;;;;;;;4978032;28;20412;-62
2022/01/25 03:15:54;;;;;;;111.87;58.27;;;;;;;;;;4983174;28;20049;-62
2022/01/25 03:18:38;;;;;;;108.27;59.13;;;;;;;;;;5006768;28;20029;-62
2022/01/25 03:23:51;;;;;;;103.80;56.10;;;;;;;;;;5005298;28;20041;-60
2022/01/25 03:26:17;;;;;;;105.23;57.70;;;;;;;;;;5005844;28;20480;-61
2022/01/25 03:28:44;;;;;;;108.00;57.53;;;;;;;;;;5000136;28;20045;-61
2022/01/25 03:31:10;;;;;;;104.10;56.67;;;;;;;;;;4994168;28;20052;-60
2022/01/25 03:33:36;;;;;;;107.87;57.10;;;;;;;;;;4997692;28;20068;-60
2022/01/25 03:36:02;;;;;;;106.10;57.27;;;;;;;;;;4994126;28;20034;-61
2022/01/25 03:38:28;;;;;;;109.17;55.00;;;;;;;;;;4999521;28;20045;-61
2022/01/25 03:40:55;;;;;;;111.77;54.73;;;;;;;;;;4993763;28;20451;-60
2022/01/25 03:43:21;;;;;;;108.60;54.70;;;;;;;;;;5005821;28;20640;-60
2022/01/25 03:51:27;;;;;;;108.00;55.38;;;;;;;;;;5001908;28;20166;-62
2022/01/25 03:53:53;;;;;;;105.07;57.07;;;;;;;;;;4995619;28;20037;-62
2022/01/25 03:56:20;;;;;;;105.13;55.77;;;;;;;;;;4988931;28;20056;-60
2022/01/25 03:58:46;;;;;;;107.40;54.10;;;;;;;;;;4991184;28;20129;-61
2022/01/25 04:01:12;;;;;;;105.33;54.53;;;;;;;;;;4989651;28;20378;-61
2022/01/25 04:03:44;;;;;;;104.87;54.20;;;;;;;;;;4990520;28;20483;-61
2022/01/25 04:06:17;;;;;;;103.40;52.07;;;;;;;;;;5008588;28;20096;-61
2022/01/25 04:08:43;;;;;;;100.90;52.40;;;;;;;;;;5009572;28;20132;-61
2022/01/25 04:11:09;;;;;;;93.80;49.90;;;;;;;;;;5006628;28;20084;-61
2022/01/25 04:13:35;;;;;;;103.40;55.07;;;;;;;;;;5011664;28;20030;-61
2022/01/25 04:16:09;;;;;;;99.77;52.13;;;;;;;;;;5009493;28;20054;-61
2022/01/25 04:18:48;;;;;;;99.10;53.35;;;;;;;;;;5009019;28;20487;-61
2022/01/25 04:26:37;;;;;;;96.85;52.33;;;;;;;;;;4996985;28;20147;-61
2022/01/25 04:29:03;;;;;;;98.77;52.07;;;;;;;;;;5006404;28;20394;-60
2022/01/25 04:31:29;;;;;;;91.90;51.00;;;;;;;;;;5003329;28;20084;-61
2022/01/25 04:34:10;;;;;;;97.20;51.67;;;;;;;;;;4994204;28;20042;-61
2022/01/25 04:50:09;;;;;;;101.45;50.08;;;;;;;;;;4982805;28;20085;-61
2022/01/25 04:55:50;;;;;;;96.93;51.43;;;;;;;;;;4981676;28;20116;-59
2022/01/25 04:58:24;;;;;;;93.37;48.67;;;;;;;;;;5006040;28;20038;-61
2022/01/25 05:00:51;;;;;;;97.43;50.05;;;;;;;;;;4993643;28;20041;-61
2022/01/25 05:03:23;;;;;;;94.20;50.43;;;;;;;;;;4989387;28;20027;-60
2022/01/25 05:11:02;;;;;;;95.67;52.00;;;;;;;;;;4989515;28;20125;-62
2022/01/25 05:13:42;;;;;;;93.03;50.27;;;;;;;;;;4992802;28;20444;-61
2022/01/25 05:16:31;;;;;;;96.57;53.07;;;;;;;;;;4998901;28;20096;-61
2022/01/25 05:19:05;;;;;;;92.83;52.10;;;;;;;;;;5010839;28;20035;-62
2022/01/25 05:24:16;;;;;;;;;;;;;;;;;;5008480;28;20052;-62
2022/01/25 05:26:43;;;;;;;94.40;49.63;;;;;;;;;;5012119;28;19912;-61
2022/01/25 05:29:09;;;;;;;98.43;52.10;;;;;;;;;;5007530;28;20038;-61
2022/01/25 05:31:35;;;;;;;94.00;52.23;;;;;;;;;;5008516;28;20050;-61
2022/01/25 05:34:02;;;;;;;96.53;53.00;;;;;;;;;;4992880;28;20042;-61
2022/01/25 05:36:28;;;;;;;95.40;52.97;;;;;;;;;;4987501;28;20081;-61
2022/01/25 05:39:13;;;;;;;97.03;53.20;;;;;;;;;;4991930;28;20106;-62
2022/01/25 05:41:40;;;;;;;;;;;;;;;;;;4982193;28;20042;-59
2022/01/25 05:46:52;;;;;;;97.93;53.57;;;;;;;;;;4994154;28;20051;-61
2022/01/25 05:49:18;;;;;;;97.97;52.60;;;;;;;;;;5006822;28;20042;-62
2022/01/25 05:51:44;;;;;;;95.93;51.97;;;;;;;;;;5006710;28;20045;-61
2022/01/25 05:54:11;;;;;;;97.27;53.37;;;;;;;;;;5001275;28;20092;-61
2022/01/25 05:56:37;;;;;;;96.40;53.93;;;;;;;;;;5008089;28;20084;-61
2022/01/25 05:59:03;;;;;;;97.60;53.27;;;;;;;;;;5007086;28;20123;-61
2022/01/25 06:01:29;;;;;;;104.13;53.27;;;;;;;;;;5007898;28;21540;-61
2022/01/25 06:03:55;;;;;;;97.97;52.53;;;;;;;;;;5014122;28;20042;-60
2022/01/25 06:06:21;;;;;;;94.70;53.90;;;;;;;;;;5007207;28;20053;-61
2022/01/25 06:08:47;;;;;;;96.07;55.63;;;;;;;;;;5007815;28;20030;-61
2022/01/25 06:11:13;;;;;;;107.43;57.13;;;;;;;;;;5011837;28;20414;-61
2022/01/25 06:13:39;;;;;;;98.53;53.10;;;;;;;;;;5008784;28;20478;-61
2022/01/25 06:16:05;;;;;;;98.80;54.07;;;;;;;;;;5006745;28;20095;-61
2022/01/25 06:18:31;;;;;;;97.93;53.30;;;;;;;;;;5006552;28;20041;-61
2022/01/25 06:20:57;;;;;;;102.13;55.40;;;;;;;;;;5005737;28;20030;-61
2022/01/25 06:23:23;;;;;;;104.77;55.13;;;;;;;;;;5006697;28;20574;-61
2022/01/25 06:25:49;;;;;;;98.20;52.97;;;;;;;;;;5006584;28;20030;-61
2022/01/25 06:28:16;;;;;;;104.57;57.47;;;;;;;;;;5039559;28;20042;-61
2022/01/25 06:30:42;;;;;;;99.30;55.23;;;;;;;;;;5006397;28;20058;-61
2022/01/25 06:33:09;;;;;;;109.90;56.00;;;;;;;;;;5007944;28;20484;-61
2022/01/25 06:35:35;;;;;;;104.33;55.50;;;;;;;;;;5006305;28;20568;-61
2022/01/25 06:38:01;;;;;;;102.03;53.33;;;;;;;;;;5018381;28;20435;-61
2022/01/25 06:40:27;;;;;;;110.70;56.77;;;;;;;;;;5003099;28;20436;-61
2022/01/25 06:42:54;;;;;;;95.33;53.90;;;;;;;;;;5015722;28;20030;-61
2022/01/25 06:45:22;;;;;;;112.60;57.27;;;;;;;;;;5014808;28;20037;-61
2022/01/25 06:47:49;;;;;;;106.80;56.57;;;;;;;;;;5005866;28;20121;-61
2022/01/25 06:50:16;;;;;;;102.73;55.53;;;;;;;;;;5003015;28;20169;-61
2022/01/25 06:52:42;;;;;;;104.43;53.17;;;;;;;;;;5005785;28;20446;-61
2022/01/25 06:55:13;;;;;;;102.57;52.53;;;;;;;;;;5006780;28;20037;-61
2022/01/25 06:57:39;;;;;;;104.67;56.10;;;;;;;;;;5001348;28;20514;-60
2022/01/25 07:00:07;;;;;;;108.13;57.33;;;;;;;;;;5030125;28;20119;-61
2022/01/25 07:02:34;;;;;;;108.23;56.47;;;;;;;;;;4990934;28;20073;-61
2022/01/25 07:05:00;;;;;;;103.40;55.03;;;;;;;;;;4989507;28;20050;-62
2022/01/25 07:07:26;;;;;;;103.30;56.37;;;;;;;;;;4988596;28;20045;-61
2022/01/25 07:09:52;;;;;;;108.90;57.07;;;;;;;;;;4992913;28;20057;-62
2022/01/25 07:12:18;;;;;;;105.53;57.77;;;;;;;;;;5009258;28;20048;-62
2022/01/25 07:20:51;;;;;;;105.37;52.47;;;;;;;;;;4985944;28;20050;-61
2022/01/25 07:23:17;;;;;;;104.47;54.20;;;;;;;;;;5002757;28;20046;-61
2022/01/25 07:25:43;;;;;;;101.33;52.00;;;;;;;;;;4991273;28;20121;-61
2022/01/25 07:28:09;;;;;;;104.63;53.13;;;;;;;;;;4997134;28;20571;-61
2022/01/25 07:30:35;;;;;;;108.73;53.37;;;;;;;;;;4990637;28;20046;-61
2022/01/25 07:33:05;;;;;;;107.60;52.90;;;;;;;;;;4995383;28;20043;-61
2022/01/25 07:35:32;;;;;;;108.20;54.00;;;;;;;;;;4989345;28;20054;-61
2022/01/25 07:37:58;;;;;;;108.50;56.17;;;;;;;;;;4990791;28;20092;-61
2022/01/25 07:40:24;;;;;;;106.83;54.33;;;;;;;;;;4983430;28;20408;-61
2022/01/25 07:42:50;;;;;;;111.43;58.23;;;;;;;;;;5024747;28;20042;-61
2022/01/25 07:45:16;;;;;;;108.43;53.53;;;;;;;;;;5025713;28;20049;-62
2022/01/25 07:47:42;;;;;;;101.07;53.93;;;;;;;;;;5005607;28;20486;-62
2022/01/25 07:50:09;;;;;;;103.40;55.90;;;;;;;;;;5011750;28;20069;-61
2022/01/25 07:52:36;;;;;;;109.73;54.47;;;;;;;;;;5007928;28;20436;-61
2022/01/25 07:55:02;;;;;;;109.53;55.33;;;;;;;;;;5000544;28;20061;-62
2022/01/25 07:57:28;;;;;;;111.63;55.50;;;;;;;;;;5018256;28;20057;-62
2022/01/25 07:59:55;;;;;;;106.63;54.87;;;;;;;;;;5039981;28;20049;-62
2022/01/25 08:02:21;;;;;;;106.80;53.67;;;;;;;;;;5009681;28;20062;-62
2022/01/25 08:04:47;;;;;;;103.20;53.03;;;;;;;;;;5005426;28;20058;-61
2022/01/25 08:07:13;;;;;;;107.67;53.70;;;;;;;;;;4991596;28;20034;-62
2022/01/25 08:09:39;;;;;;;102.57;53.57;;;;;;;;;;4996054;28;20034;-62
2022/01/25 08:12:05;;;;;;;102.10;53.73;;;;;;;;;;4988893;28;20045;-62
2022/01/25 08:14:32;;;;;;;105.33;54.63;;;;;;;;;;4999933;28;20049;-62
2022/01/25 08:16:58;;;;;;;102.30;54.00;;;;;;;;;;5002463;28;20080;-62
2022/01/25 08:19:24;;;;;;;116.13;55.90;;;;;;;;;;5006869;28;20064;-62
2022/01/25 08:21:50;;;;;;;106.67;55.00;;;;;;;;;;4991927;28;20046;-62
2022/01/25 08:24:18;;;;;;;106.07;55.97;;;;;;;;;;4991116;28;20034;-62
2022/01/25 08:26:44;;;;;;;109.43;55.93;;;;;;;;;;5008336;28;20052;-62
2022/01/25 08:29:11;;;;;;;105.27;55.07;;;;;;;;;;4993987;28;20125;-62
2022/01/25 08:31:40;;;;;;;109.03;56.93;;;;;;;;;;4999276;28;20065;-62
2022/01/25 08:34:07;;;;;;;116.23;58.07;;;;;;;;;;4997577;28;20038;-62
2022/01/25 08:36:33;;;;;;;111.10;57.63;;;;;;;;;;5005945;28;20041;-62
2022/01/25 08:38:59;;;;;;;108.87;56.10;;;;;;;;;;5007017;28;20129;-62
2022/01/25 08:41:26;;;;;;;107.30;57.20;;;;;;;;;;5008254;28;20084;-60
2022/01/25 08:43:55;;;;;;;108.33;58.20;;;;;;;;;;5008299;28;20041;-61
2022/01/25 08:46:21;;;;;;;117.70;59.57;;;;;;;;;;5008334;28;20552;-61
2022/01/25 08:48:47;;;;;;;113.03;57.97;;;;;;;;;;5008140;28;20054;-62
2022/01/25 08:51:16;;;;;;;116.60;58.37;;;;;;;;;;5007609;28;20568;-61
2022/01/25 08:53:42;;;;;;;114.87;60.60;;;;;;;;;;5015461;28;20117;-62
2022/01/25 08:56:09;;;;;;;113.27;59.17;;;;;;;;;;5007106;28;20084;-61
2022/01/25 08:58:35;;;;;;;116.57;60.53;;;;;;;;;;5008143;28;20424;-61
2022/01/25 09:01:01;;;;;;;120.40;59.50;;;;;;;;;;5009187;28;20034;-61
2022/01/25 09:03:27;;;;;;;115.33;62.03;;;;;;;;;;5009561;28;20030;-61
2022/01/25 09:05:53;;;;;;;114.97;60.63;;;;;;;;;;4995883;28;20471;-61
2022/01/25 09:08:22;;;;;;;117.33;61.03;;;;;;;;;;4990461;28;20114;-61
2022/01/25 09:11:10;;;;;;;114.20;59.63;;;;;;;;;;5000693;28;20057;-61
2022/01/25 09:13:36;;;;;;;117.43;60.67;;;;;;;;;;5038795;28;20162;-61
2022/01/25 09:16:02;;;;;;;119.80;62.87;;;;;;;;;;5008341;28;20038;-61
2022/01/25 09:18:28;;;;;;;120.50;61.57;;;;;;;;;;5008519;28;20049;-61
2022/01/25 09:20:55;;;;;;;120.13;62.50;;;;;;;;;;5013212;28;20046;-61
2022/01/25 09:23:23;;;;;;;121.00;63.43;;;;;;;;;;4982715;28;20051;-61
2022/01/25 09:25:50;;;;;;;121.83;62.63;;;;;;;;;;4981910;28;20096;-61
2022/01/25 09:28:16;;;;;;;118.17;61.87;;;;;;;;;;5005411;28;20062;-62
2022/01/25 09:30:42;;;;;;;114.07;60.70;;;;;;;;;;4989232;28;20053;-61
2022/01/25 09:33:08;;;;;;;116.07;62.43;;;;;;;;;;5021380;28;20050;-61
2022/01/25 09:35:35;;;;;;;118.83;62.70;;;;;;;;;;5001251;28;20484;-61
2022/01/25 09:38:01;;;;;;;129.30;66.47;;;;;;;;;;4991988;28;20043;-62
2022/01/25 09:40:28;;;;;;;129.37;65.40;;;;;;;;;;4988811;28;20096;-61
2022/01/25 09:42:56;;;;;;;126.53;65.80;;;;;;;;;;4986766;28;20054;-61
2022/01/25 09:45:23;;;;;;;129.80;64.63;;;;;;;;;;5000280;28;20181;-61
2022/01/25 09:47:51;;;;;;;125.20;64.87;;;;;;;;;;5000825;28;20042;-61
2022/01/25 09:50:17;;;;;;;131.53;65.00;;;;;;;;;;5003563;28;20129;-62
2022/01/25 09:52:43;;;;;;;127.40;66.40;;;;;;;;;;5005705;28;20045;-61
2022/01/25 09:55:11;;;;;;;132.97;67.80;;;;;;;;;;5007597;28;20042;-61
2022/01/25 09:57:37;;;;;;;131.87;64.40;;;;;;;;;;5000985;28;20045;-61
2022/01/25 10:00:05;;;;;;;129.57;64.97;;;;;;;;;;5007187;28;20068;-62
2022/01/25 10:03:01;;;;;;;121.97;62.80;;;;;;;;;;5007290;28;20034;-62
2022/01/25 10:05:34;;;;;;;135.33;65.87;;;;;;;;;;4989247;28;20061;-61
2022/01/25 10:08:09;;;;;;;126.63;63.67;;;;;;;;;;4991303;28;20045;-61
2022/01/25 10:10:40;;;;;;;119.97;61.10;;;;;;;;;;5011962;28;20042;-62
2022/01/25 10:13:14;;;;;;;117.03;61.20;;;;;;;;;;4984555;28;20046;-62
2022/01/25 10:15:40;;;;;;;125.07;63.03;;;;;;;;;;5001618;28;20424;-62
2022/01/25 10:18:07;;;;;;;126.73;63.93;;;;;;;;;;5002038;28;20037;-62
2022/01/25 10:20:35;;;;;;;127.97;63.40;;;;;;;;;;5005911;28;20038;-62
2022/01/25 10:23:04;;;;;;;126.47;62.50;;;;;;;;;;5006605;28;20046;-62
2022/01/25 10:25:31;;;;;;;127.03;63.87;;;;;;;;;;4996309;28;20033;-62
2022/01/25 10:28:03;;;;;;;125.80;64.57;;;;;;;;;;5006093;28;20469;-62
2022/01/25 10:30:49;;;;;;;113.70;60.97;;;;;;;;;;5003541;28;20038;-62
2022/01/25 10:33:20;;;;;;;116.73;59.10;;;;;;;;;;5031909;28;20042;-62
2022/01/25 10:35:46;;;;;;;121.70;59.73;;;;;;;;;;4991143;28;20054;-62
2022/01/25 10:38:30;;;;;;;120.30;59.63;;;;;;;;;;4998780;28;20116;-61
2022/01/25 10:40:58;;;;;;;116.80;59.63;;;;;;;;;;4974126;28;20039;-60
2022/01/25 10:43:25;;;;;;;118.03;61.23;;;;;;;;;;4998199;28;20121;-60
2022/01/25 10:46:04;;;;;;;110.43;57.97;;;;;;;;;;4992133;28;20039;-60
2022/01/25 10:48:30;;;;;;;115.90;58.17;;;;;;;;;;4991252;28;20479;-60
2022/01/25 10:51:07;;;;;;;112.97;58.77;;;;;;;;;;4992273;28;20073;-61
2022/01/25 10:53:34;;;;;;;110.77;57.20;;;;;;;;;;4990846;28;20034;-61
2022/01/25 10:56:00;;;;;;;111.97;57.30;;;;;;;;;;4990646;28;20484;-61
2022/01/25 10:58:40;;;;;;;109.00;55.97;;;;;;;;;;5023626;28;20058;-60
2022/01/25 11:01:06;;;;;;;114.07;55.57;;;;;;;;;;4999878;28;20128;-60
2022/01/25 11:03:35;;;;;;;115.93;58.07;;;;;;;;;;4990152;28;20095;-60
2022/01/25 11:06:17;;;;;;;108.70;54.63;;;;;;;;;;5010923;28;20049;-61
2022/01/25 11:08:45;;;;;;;113.57;56.50;;;;;;;;;;4997006;28;20042;-61
2022/01/25 11:11:21;;;;;;;102.93;54.47;;;;;;;;;;5035295;28;20045;-61
2022/01/25 11:13:49;;;;;;;110.57;56.87;;;;;;;;;;5001024;28;20034;-61
2022/01/25 11:16:15;;;;;;;110.03;56.53;;;;;;;;;;5008145;28;20041;-61
2022/01/25 11:18:41;;;;;;;111.63;54.37;;;;;;;;;;5010437;28;20035;-61
2022/01/25 11:21:09;;;;;;;95.20;50.77;;;;;;;;;;5013079;28;20045;-61
2022/01/25 11:23:37;;;;;;;94.57;50.03;;;;;;;;;;5010109;28;20064;-61
2022/01/25 11:26:04;;;;;;;100.77;52.80;;;;;;;;;;5010494;28;20073;-61
2022/01/25 11:28:31;;;;;;;100.13;50.27;;;;;;;;;;5008305;28;20052;-62
2022/01/25 11:30:59;;;;;;;96.20;50.47;;;;;;;;;;5008922;28;20112;-62
2022/01/25 11:33:25;;;;;;;101.30;51.73;;;;;;;;;;5009818;28;20039;-62
2022/01/25 11:35:52;;;;;;;101.57;51.73;;;;;;;;;;5008328;28;20038;-62
2022/01/25 11:38:31;;;;;;;103.50;52.27;;;;;;;;;;5017109;28;20065;-61
2022/01/25 11:40:57;;;;;;;111.37;53.03;;;;;;;;;;5010309;28;20042;-62
2022/01/25 11:43:23;;;;;;;98.60;53.27;;;;;;;;;;5009468;28;20480;-60
2022/01/25 11:45:50;;;;;;;104.40;52.13;;;;;;;;;;5010112;28;20172;-62
2022/01/25 11:48:22;;;;;;;105.40;53.23;;;;;;;;;;5001722;28;20042;-61
2022/01/25 11:50:48;;;;;;;109.57;54.37;;;;;;;;;;5010398;28;20061;-61
2022/01/25 11:53:15;;;;;;;97.40;50.60;;;;;;;;;;4993701;28;20038;-61
2022/01/25 11:55:43;;;;;;;94.80;49.87;;;;;;;;;;4990365;28;20049;-61
2022/01/25 11:58:14;;;;;;;101.13;51.17;;;;;;;;;;4991116;28;20038;-62
2022/01/25 12:00:47;;;;;;;94.70;50.87;;;;;;;;;;4995923;28;20101;-61
2022/01/25 12:03:33;;;;;;;97.27;49.10;;;;;;;;;;4995002;28;20043;-61
2022/01/25 12:06:03;;;;;;;99.17;49.40;;;;;;;;;;5013737;28;20495;-61
2022/01/25 12:09:07;;;;;;;99.97;50.63;;;;;;;;;;5009986;28;20033;-61
2022/01/25 12:11:27;;;;;;;;;;;;;;;;;;4994975;28;20055;-62
2022/01/25 12:14:14;;;;;;;89.87;46.93;;;;;;;;;;4992183;28;20419;-60
2022/01/25 12:16:44;;;;;;;97.27;50.10;;;;;;;;;;4987636;28;20042;-60
2022/01/25 12:19:14;;;;;;;93.37;49.53;;;;;;;;;;4990431;28;20046;-60
2022/01/25 12:21:52;;;;;;;95.27;49.83;;;;;;;;;;4999872;28;20121;-60
2022/01/25 12:24:35;;;;;;;86.87;48.07;;;;;;;;;;4997264;28;20042;-60
2022/01/25 12:27:25;;;;;;;91.50;50.13;;;;;;;;;;5007441;28;20049;-62
2022/01/25 12:30:11;;;;;;;92.27;48.87;;;;;;;;;;4984101;28;20496;-61
2022/01/25 12:32:47;;;;;;;93.30;48.73;;;;;;;;;;4994056;28;20043;-61
2022/01/25 12:35:15;;;;;;;88.10;48.13;;;;;;;;;;5000073;28;20038;-61
2022/01/25 12:37:44;;;;;;;106.27;51.73;;;;;;;;;;5041163;28;20099;-59
2022/01/25 12:40:25;;;;;;;89.07;49.77;;;;;;;;;;4997254;28;20054;-61
2022/01/25 12:42:55;;;;;;;93.80;49.37;;;;;;;;;;5009410;28;20018;-61
2022/01/25 12:45:22;;;;;;;90.57;48.77;;;;;;;;;;5007087;28;20045;-62
2022/01/25 12:47:58;;;;;;;94.70;50.13;;;;;;;;;;5008381;28;20033;-62
2022/01/25 12:50:24;;;;;;;89.30;49.17;;;;;;;;;;5030487;28;20129;-61
2022/01/25 12:52:50;;;;;;;92.77;50.03;;;;;;;;;;5004894;28;20581;-62
2022/01/25 12:55:17;;;;;;;99.03;52.17;;;;;;;;;;5001102;28;20034;-62
2022/01/25 12:57:47;;;;;;;96.57;51.77;;;;;;;;;;4990729;28;20034;-62
2022/01/25 13:00:14;;;;;;;92.00;49.93;;;;;;;;;;4989049;28;20120;-62
2022/01/25 13:02:40;;;;;;;98.87;51.57;;;;;;;;;;4991363;28;20038;-61
2022/01/25 13:05:15;;;;;;;90.40;48.43;;;;;;;;;;4998953;28;20120;-61
2022/01/25 13:07:41;;;;;;;88.93;47.57;;;;;;;;;;4997960;28;20044;-61
2022/01/25 13:10:10;;;;;;;93.00;49.63;;;;;;;;;;5037457;28;20042;-61
2022/01/25 13:12:47;;;;;;;97.30;51.20;;;;;;;;;;5004004;28;20522;-61
2022/01/25 13:18:14;;;;;;;89.43;47.13;;;;;;;;;;5009362;28;20049;-62
2022/01/25 13:20:43;;;;;;;91.13;48.60;;;;;;;;;;4999416;28;20121;-61
2022/01/25 13:23:09;;;;;;;85.27;46.67;;;;;;;;;;5002104;28;20040;-62
2022/01/25 13:25:55;;;;;;;87.63;47.57;;;;;;;;;;5006975;28;20048;-62
2022/01/25 13:31:25;;;;;;;89.80;47.30;;;;;;;;;;5021074;28;20388;-61
2022/01/25 13:33:54;;;;;;;92.70;48.63;;;;;;;;;;5000088;28;20592;-61
2022/01/25 13:36:20;;;;;;;83.63;46.27;;;;;;;;;;5008818;28;20037;-62
2022/01/25 13:38:49;;;;;;;90.73;48.87;;;;;;;;;;5009301;28;20033;-62
2022/01/25 13:46:07;;;;;;;85.40;46.03;;;;;;;;;;5000811;28;20041;-62
2022/01/25 13:48:35;;;;;;;86.53;45.77;;;;;;;;;;5009062;28;20415;-62
2022/01/25 13:51:02;;;;;;;89.33;46.83;;;;;;;;;;5000175;28;20058;-62
2022/01/25 13:53:29;;;;;;;85.07;45.13;;;;;;;;;;4988890;28;20488;-62
2022/01/25 13:55:59;;;;;;;82.53;43.60;;;;;;;;;;4993917;28;20058;-62
2022/01/25 13:58:26;;;;;;;79.00;43.50;;;;;;;;;;5003352;28;20057;-62
2022/01/25 14:00:53;;;;;;;84.43;44.87;;;;;;;;;;5004251;28;20442;-62
2022/01/25 14:03:23;;;;;;;86.20;44.63;;;;;;;;;;5007742;28;20040;-61
2022/01/25 14:05:49;;;;;;;83.90;44.13;;;;;;;;;;5033908;28;20068;-61
2022/01/25 14:08:15;;;;;;;81.47;44.87;;;;;;;;;;5008185;28;20034;-61
2022/01/25 14:10:46;;;;;;;82.03;44.93;;;;;;;;;;5006394;28;20046;-61
2022/01/25 14:24:32;;;;;;;78.80;42.80;;;;;;;;;;4992465;28;20030;-61
2022/01/25 14:26:58;;;;;;;75.97;42.17;;;;;;;;;;4990239;28;20121;-61
2022/01/25 14:29:25;;;;;;;82.07;43.07;;;;;;;;;;5026148;28;20034;-61
2022/01/25 14:31:51;;;;;;;75.60;41.57;;;;;;;;;;4994208;28;20512;-61
2022/01/25 14:34:18;;;;;;;82.43;43.63;;;;;;;;;;4997435;28;20029;-61
2022/01/25 14:36:47;;;;;;;79.17;40.87;;;;;;;;;;5005229;28;20080;-61
2022/01/25 14:39:14;;;;;;;72.63;40.17;;;;;;;;;;5005803;28;20042;-61
2022/01/25 14:41:40;;;;;;;75.33;40.97;;;;;;;;;;4990460;28;20038;-61
2022/01/25 14:44:11;;;;;;;74.10;40.67;;;;;;;;;;4989240;28;20031;-61
2022/01/25 14:46:38;;;;;;;77.00;40.03;;;;;;;;;;5002972;28;20152;-62
2022/01/25 14:49:08;;;;;;;80.37;39.87;;;;;;;;;;5008086;28;20472;-61
2022/01/25 14:51:34;;;;;;;76.77;40.17;;;;;;;;;;5006840;28;20048;-61
2022/01/25 14:54:01;;;;;;;81.73;39.10;;;;;;;;;;5009225;28;20253;-62
2022/01/25 14:56:31;;;;;;;80.73;40.33;;;;;;;;;;5006186;28;20045;-61
2022/01/25 15:01:23;;;;;;;72.43;40.57;;;;;;;;;;5007537;28;20030;-61
2022/01/25 15:03:51;;;;;;;75.00;38.57;;;;;;;;;;5006747;28;20121;-62
2022/01/25 15:06:18;;;;;;;76.40;38.67;;;;;;;;;;5002183;28;20038;-62
2022/01/25 15:08:54;;;;;;;74.00;39.50;;;;;;;;;;4991863;28;20482;-61
2022/01/25 15:11:21;;;;;;;73.40;39.53;;;;;;;;;;5020094;28;20061;-62
2022/01/25 15:13:51;;;;;;;72.10;39.30;;;;;;;;;;5007530;28;20041;-62
2022/01/25 15:16:19;;;;;;;80.73;40.77;;;;;;;;;;4993343;28;20038;-61
2022/01/25 15:18:54;;;;;;;74.80;39.93;;;;;;;;;;4987329;28;20030;-61
2022/01/25 15:21:20;;;;;;;69.10;39.07;;;;;;;;;;4985463;28;20061;-61
2022/01/25 15:23:49;;;;;;;76.83;39.50;;;;;;;;;;4994925;28;20384;-61
2022/01/25 15:26:17;;;;;;;72.40;39.10;;;;;;;;;;5021637;28;20042;-61
2022/01/25 15:28:46;;;;;;;76.83;41.57;;;;;;;;;;5025528;28;20439;-62
2022/01/25 15:31:14;;;;;;;74.57;39.67;;;;;;;;;;4991752;28;20141;-61
2022/01/25 15:33:41;;;;;;;72.27;38.77;;;;;;;;;;4991866;28;20053;-61
2022/01/25 15:36:08;;;;;;;74.63;39.57;;;;;;;;;;5008621;28;20104;-62
2022/01/25 15:38:35;;;;;;;72.60;38.43;;;;;;;;;;5009092;28;20060;-62
2022/01/25 15:41:08;;;;;;;75.23;38.50;;;;;;;;;;5009257;28;20040;-61
2022/01/25 15:43:39;;;;;;;70.33;38.13;;;;;;;;;;4993961;28;20096;-61
2022/01/25 15:46:07;;;;;;;71.43;38.60;;;;;;;;;;4989971;28;20034;-61
2022/01/25 15:48:33;;;;;;;73.10;38.13;;;;;;;;;;4994811;28;20041;-61
2022/01/25 15:51:00;;;;;;;73.30;38.47;;;;;;;;;;4996750;28;20057;-61
2022/01/25 15:53:26;;;;;;;77.07;38.33;;;;;;;;;;4992484;28;20117;-61
2022/01/25 15:55:52;;;;;;;73.97;40.13;;;;;;;;;;4988157;28;20042;-62
2022/01/25 15:58:19;;;;;;;77.57;38.17;;;;;;;;;;4990272;28;20525;-61
2022/01/25 16:00:47;;;;;;;70.80;37.20;;;;;;;;;;4989421;28;20034;-60
2022/01/25 16:03:18;;;;;;;70.20;35.63;;;;;;;;;;5002646;28;20377;-60
2022/01/25 16:05:44;;;;;;;68.53;36.00;;;;;;;;;;4994007;28;20034;-60
2022/01/25 16:08:10;;;;;;;72.03;37.07;;;;;;;;;;5011951;28;20069;-61
2022/01/25 16:10:38;;;;;;;70.43;36.07;;;;;;;;;;5020048;28;20042;-60
2022/01/25 16:13:04;;;;;;;67.00;35.87;;;;;;;;;;5007577;28;20423;-60
2022/01/25 16:15:30;;;;;;;64.77;35.20;;;;;;;;;;5008116;28;20128;-60
2022/01/25 16:17:57;;;;;;;64.37;34.20;;;;;;;;;;5040623;28;20080;-60
2022/01/25 16:20:23;;;;;;;68.77;35.33;;;;;;;;;;5006796;28;20052;-60
2022/01/25 16:22:49;;;;;;;62.73;34.03;;;;;;;;;;5008193;28;20059;-60
2022/01/25 16:25:15;;;;;;;65.40;33.20;;;;;;;;;;5009614;28;20438;-60
2022/01/25 16:27:41;;;;;;;63.57;33.00;;;;;;;;;;5008985;28;20037;-61
2022/01/25 16:30:07;;;;;;;63.50;32.53;;;;;;;;;;4997573;28;20480;-60
2022/01/25 16:32:36;;;;;;;60.97;32.03;;;;;;;;;;5034329;28;20038;-60
2022/01/25 16:35:03;;;;;;;64.23;33.93;;;;;;;;;;5009520;28;20068;-61
2022/01/25 16:37:29;;;;;;;57.60;30.70;;;;;;;;;;5003806;28;20037;-61
2022/01/25 16:39:55;;;;;;;64.73;33.60;;;;;;;;;;4988562;28;20030;-61
2022/01/25 16:42:21;;;;;;;58.63;31.97;;;;;;;;;;4986356;28;20156;-61